Terminal Aerodrome Forecast
Issued by NWS Charleston, SC

Home | Current Version | Previous Version | Text Only | Print | Product List | Glossary On
Versions: 1 2 3 4 5 6 7 8 9 10 11 12 13 14 15 16 17 18 19 20 21 22 23
000
FTUS42 KCHS 262336
TAFCHS
TAF
KCHS 262336Z 2700/2724 21009KT P6SM BKN140
     FM271100 24008KT 6SM BR SCT008 BKN015
     FM271500 26013G19KT 6SM -SHRA SCT008 BKN020
     FM272100 31013G19KT P6SM BKN025 OVC150=

USA.gov is the U.S. government's official web portal to all federal, state and local government web resources and services.